createdAt,value
2023-11-14T00:00:21.988Z,0.00
2023-11-14T00:02:51.823Z,0.00
2023-11-14T00:05:20.419Z,0.00
2023-11-14T00:07:49.031Z,0.10
2023-11-14T00:10:17.676Z,0.00
2023-11-14T00:12:46.267Z,0.00
2023-11-14T00:15:14.810Z,0.10
2023-11-14T00:17:43.457Z,0.00
2023-11-14T00:20:14.314Z,0.00
2023-11-14T00:22:42.814Z,0.10
2023-11-14T00:25:11.986Z,0.00
2023-11-14T00:27:40.957Z,0.00
2023-11-14T00:30:11.723Z,0.08
2023-11-14T00:32:40.315Z,0.10
2023-11-14T00:35:09.818Z,0.10
2023-11-14T00:37:39.677Z,0.00
2023-11-14T00:40:10.217Z,0.00
2023-11-14T00:42:38.829Z,0.05
2023-11-14T00:45:08.009Z,0.10
2023-11-14T00:47:37.105Z,0.20
2023-11-14T00:50:06.799Z,0.00
2023-11-14T00:52:35.433Z,0.00
2023-11-14T00:55:06.196Z,0.10
2023-11-14T00:57:34.680Z,0.00
2023-11-14T01:00:03.754Z,0.00
2023-11-14T01:02:32.392Z,0.10
2023-11-14T01:05:01.020Z,0.00
2023-11-14T01:07:29.549Z,0.00
2023-11-14T01:09:57.983Z,0.10
2023-11-14T01:12:28.045Z,0.10
2023-11-14T01:14:57.525Z,0.00
2023-11-14T01:17:27.001Z,0.10
2023-11-14T01:19:55.866Z,0.10
2023-11-14T01:22:24.495Z,0.10
2023-11-14T01:24:53.058Z,0.13
2023-11-14T01:27:21.669Z,0.10
2023-11-14T01:29:51.615Z,0.00
2023-11-14T01:32:20.069Z,0.00
2023-11-14T01:34:48.558Z,0.00
2023-11-14T01:37:17.332Z,0.00
2023-11-14T01:39:46.181Z,0.03
2023-11-14T01:42:16.026Z,0.10
2023-11-14T01:44:44.500Z,0.00
2023-11-14T01:47:14.552Z,0.10
2023-11-14T01:49:43.792Z,0.10
2023-11-14T01:52:13.265Z,0.00
2023-11-14T01:54:41.844Z,0.05
2023-11-14T01:57:13.661Z,0.00
2023-11-14T01:59:45.070Z,0.00
2023-11-14T02:02:16.667Z,0.00
2023-11-14T02:04:48.611Z,0.00
2023-11-14T02:07:21.309Z,0.10
2023-11-14T02:09:51.902Z,0.10
2023-11-14T02:12:20.621Z,0.00
2023-11-14T02:14:49.204Z,0.10
2023-11-14T02:17:19.194Z,0.10
2023-11-14T02:19:47.781Z,0.10
2023-11-14T02:22:16.321Z,0.10
2023-11-14T02:24:52.468Z,0.00
2023-11-14T02:27:21.952Z,0.00
2023-11-14T02:29:51.990Z,0.10
2023-11-14T02:32:20.430Z,0.10
2023-11-14T02:34:48.875Z,0.00
2023-11-14T02:37:17.601Z,0.10
2023-11-14T02:39:45.996Z,0.03
2023-11-14T02:42:15.806Z,0.10
2023-11-14T02:44:44.832Z,0.05
2023-11-14T02:47:13.158Z,0.00
2023-11-14T02:49:59.693Z,0.05
2023-11-14T02:52:28.478Z,0.10
2023-11-14T02:54:56.954Z,0.17
2023-11-14T02:57:26.696Z,0.00
2023-11-14T02:59:55.566Z,0.10
2023-11-14T03:02:24.045Z,0.00
2023-11-14T03:04:53.389Z,0.03
2023-11-14T03:07:22.392Z,0.10
2023-11-14T03:09:50.810Z,0.10
2023-11-14T03:12:19.361Z,0.00
2023-11-14T03:14:49.223Z,0.00
2023-11-14T03:17:19.385Z,0.00
2023-11-14T03:19:48.527Z,0.00
2023-11-14T03:22:17.056Z,0.10
2023-11-14T03:24:45.550Z,0.00
2023-11-14T03:27:14.022Z,0.00
2023-11-14T03:29:42.511Z,0.00
2023-11-14T03:32:12.432Z,0.00
2023-11-14T03:34:40.986Z,0.10
2023-11-14T03:37:09.826Z,0.10
2023-11-14T03:39:38.324Z,0.03
2023-11-14T03:42:07.244Z,0.00
2023-11-14T03:44:35.821Z,0.00
2023-11-14T03:47:04.802Z,0.00
2023-11-14T03:49:34.596Z,0.15
2023-11-14T03:52:03.104Z,0.00
2023-11-14T03:54:31.571Z,0.10
2023-11-14T03:57:00.041Z,0.00
2023-11-14T03:59:28.545Z,0.00
2023-11-14T04:01:57.638Z,0.08
2023-11-14T04:04:26.137Z,0.10
2023-11-14T04:06:56.462Z,0.10
2023-11-14T04:09:24.897Z,0.10
2023-11-14T04:11:53.422Z,0.00
2023-11-14T04:14:21.951Z,0.10
2023-11-14T04:16:50.544Z,0.00
2023-11-14T04:19:19.108Z,0.10
2023-11-14T04:21:47.837Z,0.00
2023-11-14T04:24:17.797Z,0.00
2023-11-14T04:26:46.264Z,0.10
2023-11-14T04:29:15.866Z,0.00
2023-11-14T04:31:44.380Z,0.10
2023-11-14T04:34:12.994Z,0.00
2023-11-14T04:36:42.541Z,0.00
2023-11-14T04:39:13.465Z,0.10
2023-11-14T04:41:43.978Z,0.08
2023-11-14T04:44:13.140Z,0.10
2023-11-14T04:46:44.946Z,0.00
2023-11-14T04:49:13.679Z,0.00
2023-11-14T04:51:43.729Z,0.00
2023-11-14T04:54:12.248Z,0.00
2023-11-14T04:56:40.700Z,0.00
2023-11-14T04:59:10.862Z,0.00
2023-11-14T05:01:39.639Z,0.08
2023-11-14T05:04:08.230Z,0.10
2023-11-14T05:06:36.713Z,0.10
2023-11-14T05:09:06.218Z,0.00
2023-11-14T05:11:38.255Z,0.08
2023-11-14T05:14:08.096Z,0.10
2023-11-14T05:16:41.757Z,0.00
2023-11-14T05:19:10.840Z,0.00
2023-11-14T05:21:39.853Z,0.10
2023-11-14T05:24:09.256Z,0.00
2023-11-14T05:26:37.706Z,0.00
2023-11-14T05:29:07.954Z,0.00
2023-11-14T05:31:39.499Z,0.10
2023-11-14T05:34:10.297Z,0.10
2023-11-14T05:36:38.814Z,0.05
2023-11-14T05:39:07.809Z,0.05
2023-11-14T05:41:37.697Z,0.30
2023-11-14T05:44:06.648Z,0.00
2023-11-14T05:46:35.335Z,0.10
2023-11-14T05:49:03.887Z,0.20
2023-11-14T05:51:33.816Z,0.03
2023-11-14T05:54:02.348Z,0.10
2023-11-14T05:56:32.197Z,0.10
2023-11-14T05:59:00.757Z,0.10
2023-11-14T06:01:29.286Z,0.10
2023-11-14T06:03:57.781Z,0.10
2023-11-14T06:06:26.249Z,0.20
2023-11-14T06:08:56.017Z,0.40
2023-11-14T06:11:24.525Z,0.43
2023-11-14T06:13:53.077Z,0.50
2023-11-14T06:16:22.692Z,0.50
2023-11-14T06:18:52.355Z,0.38
2023-11-14T06:21:20.857Z,0.43
2023-11-14T06:23:49.783Z,0.45
2023-11-14T06:26:19.716Z,0.43
2023-11-14T06:28:48.314Z,0.45
2023-11-14T06:31:16.849Z,0.38
2023-11-14T06:33:45.359Z,0.10
2023-11-14T06:36:15.970Z,0.40
2023-11-14T06:38:44.705Z,0.20
2023-11-14T06:41:13.674Z,0.10
2023-11-14T06:43:43.738Z,0.22
2023-11-14T06:46:13.602Z,0.40
2023-11-14T06:48:42.164Z,0.40
2023-11-14T06:51:12.023Z,0.47
2023-11-14T06:53:40.612Z,0.40
2023-11-14T06:56:13.441Z,0.40
2023-11-14T06:58:43.437Z,0.60
2023-11-14T07:01:14.384Z,0.50
2023-11-14T07:03:44.884Z,0.70
2023-11-14T07:06:13.464Z,0.60
2023-11-14T07:08:42.290Z,0.30
2023-11-14T07:11:12.269Z,0.30
2023-11-14T07:13:40.946Z,0.32
2023-11-14T07:16:11.072Z,0.50
2023-11-14T07:18:39.729Z,0.40
2023-11-14T07:21:08.476Z,0.40
2023-11-14T07:23:36.983Z,0.32
2023-11-14T07:26:06.129Z,0.55
2023-11-14T07:28:35.634Z,0.28
2023-11-14T07:31:04.414Z,0.32
2023-11-14T07:33:34.350Z,0.30
2023-11-14T07:36:03.006Z,0.30
2023-11-14T07:38:31.502Z,0.25
2023-11-14T07:41:00.021Z,0.08
2023-11-14T07:43:30.301Z,0.20
2023-11-14T07:45:58.723Z,0.17
2023-11-14T07:48:27.231Z,0.10
2023-11-14T07:50:58.979Z,0.30
2023-11-14T07:53:27.554Z,0.17
2023-11-14T07:55:56.002Z,0.30
2023-11-14T07:58:26.348Z,0.00
2023-11-14T08:00:55.151Z,0.30
2023-11-14T08:03:24.152Z,0.10
2023-11-14T08:05:53.341Z,0.70
2023-11-14T08:08:22.344Z,0.20
2023-11-14T08:10:50.779Z,0.10
2023-11-14T08:13:19.249Z,0.20
2023-11-14T08:15:48.947Z,0.32
2023-11-14T08:18:17.941Z,0.50
2023-11-14T08:20:46.526Z,0.15
2023-11-14T08:23:15.022Z,0.20
2023-11-14T08:25:45.064Z,0.20
2023-11-14T08:28:13.455Z,0.10
2023-11-14T08:30:42.628Z,0.30
2023-11-14T08:33:11.400Z,0.10
2023-11-14T08:35:40.015Z,0.10
2023-11-14T08:38:14.419Z,0.10
2023-11-14T08:40:50.164Z,0.17
2023-11-14T08:43:21.193Z,0.13
2023-11-14T08:45:50.235Z,0.20
2023-11-14T08:48:18.706Z,0.10
2023-11-14T08:50:47.188Z,0.10
2023-11-14T08:53:16.159Z,0.10
2023-11-14T08:55:44.683Z,0.20
2023-11-14T08:58:14.866Z,0.10
2023-11-14T09:00:44.320Z,0.20
2023-11-14T09:03:13.627Z,0.30
2023-11-14T09:05:42.085Z,0.20
2023-11-14T09:08:10.657Z,0.20
2023-11-14T09:10:39.484Z,0.10
2023-11-14T09:13:07.966Z,0.13
2023-11-14T09:15:37.798Z,0.10
2023-11-14T09:18:06.587Z,0.30
2023-11-14T09:20:35.753Z,0.40
2023-11-14T09:23:05.823Z,0.40
2023-11-14T09:25:34.989Z,0.50
2023-11-14T09:28:03.737Z,0.55
2023-11-14T09:30:32.269Z,0.20
2023-11-14T09:33:03.122Z,0.40
2023-11-14T09:35:32.122Z,0.40
2023-11-14T09:38:00.599Z,0.60
2023-11-14T09:40:29.476Z,0.40
2023-11-14T09:42:58.389Z,0.60
2023-11-14T09:45:27.206Z,0.50
2023-11-14T09:47:57.182Z,0.55
2023-11-14T09:50:27.232Z,0.45
2023-11-14T09:52:56.325Z,0.25
2023-11-14T09:55:24.971Z,0.30
2023-11-14T09:57:53.672Z,0.20
2023-11-14T10:00:22.429Z,0.20
2023-11-14T10:02:51.771Z,0.43
2023-11-14T10:05:21.382Z,0.22
2023-11-14T10:07:51.471Z,0.20
2023-11-14T10:10:23.019Z,0.30
2023-11-14T10:12:52.346Z,0.30
2023-11-14T10:15:29.520Z,0.30
2023-11-14T10:17:58.076Z,0.20
2023-11-14T10:20:47.342Z,0.17
2023-11-14T10:23:38.030Z,0.20
2023-11-14T10:26:10.582Z,0.30
2023-11-14T10:28:52.420Z,0.17
2023-11-14T10:31:38.813Z,0.00
2023-11-14T10:34:11.897Z,0.10
2023-11-14T10:36:48.351Z,0.17
2023-11-14T10:39:18.234Z,0.20
2023-11-14T10:41:47.306Z,0.10
2023-11-14T10:44:16.091Z,0.10
2023-11-14T10:46:49.938Z,0.10
2023-11-14T10:51:49.443Z,0.10
2023-11-14T10:54:20.393Z,0.08
2023-11-14T10:56:55.888Z,0.20
2023-11-14T10:59:28.806Z,0.30
2023-11-14T11:01:58.109Z,0.30
2023-11-14T11:04:27.322Z,0.38
2023-11-14T11:06:55.799Z,0.38
2023-11-14T11:09:25.874Z,0.20
2023-11-14T11:11:56.546Z,0.20
2023-11-14T11:14:26.512Z,0.30
2023-11-14T11:16:55.350Z,0.50
2023-11-14T11:19:29.674Z,1.02
2023-11-14T11:22:04.237Z,1.33
2023-11-14T11:24:41.296Z,1.70
2023-11-14T11:27:12.305Z,1.75
2023-11-14T11:30:09.326Z,2.28
2023-11-14T11:32:41.687Z,2.30
2023-11-14T11:35:31.936Z,2.28
2023-11-14T11:38:08.282Z,2.50
2023-11-14T11:40:58.589Z,2.22
2023-11-14T11:43:28.100Z,2.13
2023-11-14T11:45:56.635Z,2.20
2023-11-14T11:48:29.609Z,2.22
2023-11-14T11:51:19.695Z,1.88
2023-11-14T11:53:50.363Z,1.42
2023-11-14T11:56:42.569Z,1.92
2023-11-14T11:59:11.101Z,1.60
2023-11-14T12:01:48.230Z,1.67
2023-11-14T12:04:17.997Z,1.50
2023-11-14T12:06:47.889Z,1.50
2023-11-14T12:09:17.068Z,1.27
2023-11-14T12:11:47.585Z,1.20
2023-11-14T12:14:18.989Z,1.30
2023-11-14T12:16:49.092Z,1.30
2023-11-14T12:19:18.008Z,1.20
2023-11-14T12:21:47.000Z,1.10
2023-11-14T12:24:15.961Z,1.30
2023-11-14T12:26:44.784Z,1.10
2023-11-14T12:29:16.097Z,1.00
2023-11-14T12:31:46.931Z,0.93
2023-11-14T12:34:25.401Z,0.90
2023-11-14T12:37:06.861Z,0.80
2023-11-14T12:39:35.475Z,0.90
2023-11-14T12:42:05.332Z,0.80
2023-11-14T12:44:37.191Z,0.77
2023-11-14T12:47:09.633Z,0.70
2023-11-14T12:49:49.050Z,0.90
2023-11-14T12:52:18.073Z,0.65
2023-11-14T12:54:46.622Z,1.00
2023-11-14T12:57:15.194Z,0.90
2023-11-14T12:59:45.392Z,0.82
2023-11-14T13:02:14.007Z,0.82
2023-11-14T13:04:42.505Z,0.75
2023-11-14T13:07:11.338Z,0.80
2023-11-14T13:09:41.106Z,0.80
2023-11-14T13:12:13.495Z,0.57
2023-11-14T13:14:43.266Z,0.60
2023-11-14T13:17:13.428Z,0.60
2023-11-14T13:19:43.304Z,0.60
2023-11-14T13:22:14.045Z,0.52
2023-11-14T13:24:44.064Z,0.68
2023-11-14T13:27:12.632Z,0.40
2023-11-14T13:29:43.580Z,0.70
2023-11-14T13:32:14.434Z,0.70
2023-11-14T13:34:43.764Z,0.60
2023-11-14T13:37:12.936Z,0.50
2023-11-14T13:39:42.774Z,0.70
2023-11-14T13:42:11.414Z,0.70
2023-11-14T13:44:39.900Z,0.70
2023-11-14T13:47:08.588Z,0.70
2023-11-14T13:49:40.316Z,0.50
2023-11-14T13:52:09.137Z,0.50
2023-11-14T13:54:37.537Z,0.40
2023-11-14T13:57:07.460Z,0.45
2023-11-14T13:59:36.015Z,0.50
2023-11-14T14:02:04.773Z,0.40
2023-11-14T14:04:34.882Z,0.22
2023-11-14T14:07:05.524Z,0.20
2023-11-14T14:09:36.360Z,0.32
2023-11-14T14:12:08.135Z,0.28
2023-11-14T14:14:39.798Z,0.17
2023-11-14T14:17:10.389Z,0.40
2023-11-14T14:19:39.122Z,0.20
2023-11-14T14:22:08.893Z,0.30
2023-11-14T14:24:37.384Z,0.32
2023-11-14T14:27:08.538Z,0.17
2023-11-14T14:29:37.909Z,0.20
2023-11-14T14:32:06.659Z,0.20
2023-11-14T14:34:35.146Z,0.30
2023-11-14T14:37:03.704Z,0.32
2023-11-14T14:39:33.662Z,0.20
2023-11-14T14:42:02.163Z,0.05
2023-11-14T14:44:30.705Z,0.22
2023-11-14T14:46:59.602Z,0.20
2023-11-14T14:49:29.058Z,0.30
2023-11-14T14:51:59.521Z,0.10
2023-11-14T14:54:29.812Z,0.25
2023-11-14T14:56:59.707Z,0.38
2023-11-14T14:59:28.201Z,0.20
2023-11-14T15:01:58.125Z,0.10
2023-11-14T15:04:27.008Z,0.10
2023-11-14T15:06:55.565Z,0.20
2023-11-14T15:09:26.699Z,0.15
2023-11-14T15:11:55.982Z,0.10
2023-11-14T15:14:27.653Z,0.10
2023-11-14T15:16:57.310Z,0.28
2023-11-14T15:19:26.021Z,0.20
2023-11-14T15:21:55.581Z,0.30
2023-11-14T15:24:24.350Z,0.10
2023-11-14T15:26:55.009Z,0.20
2023-11-14T15:29:25.730Z,0.10
2023-11-14T15:31:55.198Z,0.20
2023-11-14T15:34:25.152Z,0.05
2023-11-14T15:36:53.779Z,0.10
2023-11-14T15:39:22.435Z,0.20
2023-11-14T15:41:50.877Z,0.22
2023-11-14T15:44:19.417Z,0.10
2023-11-14T15:46:50.441Z,0.30
2023-11-14T15:49:18.933Z,0.20
2023-11-14T15:51:47.353Z,0.10
2023-11-14T15:54:18.374Z,0.20
2023-11-14T15:56:46.849Z,0.10
2023-11-14T15:59:15.327Z,0.15
2023-11-14T16:01:46.202Z,0.30
2023-11-14T16:04:17.588Z,0.32
2023-11-14T16:06:46.232Z,0.10
2023-11-14T16:09:14.879Z,0.17
2023-11-14T16:11:43.372Z,0.10
2023-11-14T16:14:11.888Z,0.20
2023-11-14T16:16:40.452Z,0.00
2023-11-14T16:19:08.995Z,0.10
2023-11-14T16:21:40.618Z,0.10
2023-11-14T16:24:10.280Z,0.10
2023-11-14T16:26:38.866Z,0.10
2023-11-14T16:29:07.570Z,0.17
2023-11-14T16:31:54.683Z,0.10
2023-11-14T16:34:23.306Z,0.20
2023-11-14T16:36:53.127Z,0.20
2023-11-14T16:39:21.595Z,0.20
2023-11-14T16:41:50.211Z,0.30
2023-11-14T16:44:19.002Z,0.20
2023-11-14T16:46:51.168Z,0.30
2023-11-14T16:49:19.656Z,0.20
2023-11-14T16:51:48.454Z,0.30
2023-11-14T16:54:18.325Z,0.30
2023-11-14T16:56:47.645Z,0.20
2023-11-14T16:59:16.420Z,0.50
2023-11-14T17:01:47.289Z,0.47
2023-11-14T17:04:15.846Z,0.43
2023-11-14T17:06:44.356Z,0.32
2023-11-14T17:09:12.823Z,0.50
2023-11-14T17:11:42.734Z,0.40
2023-11-14T17:14:29.756Z,0.45
2023-11-14T17:16:58.351Z,0.40
2023-11-14T17:19:26.962Z,0.60
2023-11-14T17:21:55.532Z,0.40
2023-11-14T17:24:24.106Z,0.40
2023-11-14T17:26:55.278Z,0.40
2023-11-14T17:29:26.575Z,0.57
2023-11-14T17:32:00.412Z,0.68
2023-11-14T17:34:48.371Z,0.60
2023-11-14T17:37:17.116Z,0.80
2023-11-14T17:39:45.638Z,0.80
2023-11-14T17:42:18.932Z,0.70
2023-11-14T17:45:06.957Z,0.80
2023-11-14T17:47:36.614Z,0.73
2023-11-14T17:50:23.685Z,0.50
2023-11-14T17:52:52.209Z,0.60
2023-11-14T17:55:39.849Z,0.70
2023-11-14T17:58:09.848Z,0.57
2023-11-14T18:00:39.583Z,0.40
2023-11-14T18:03:08.504Z,0.40
2023-11-14T18:05:37.459Z,0.60
2023-11-14T18:08:07.823Z,1.13
2023-11-14T18:10:36.767Z,2.35
2023-11-14T18:13:24.833Z,3.85
2023-11-14T18:15:53.274Z,3.80
2023-11-14T18:18:21.812Z,4.95
2023-11-14T18:20:50.298Z,4.22
2023-11-14T18:23:18.860Z,3.90
2023-11-14T18:25:47.435Z,5.03
2023-11-14T18:28:16.458Z,3.80
2023-11-14T18:31:05.047Z,3.45
2023-11-14T18:33:33.617Z,3.10
2023-11-14T18:36:05.507Z,3.50
2023-11-14T18:38:34.125Z,3.05
2023-11-14T18:41:04.109Z,3.03
2023-11-14T18:43:51.363Z,2.60
2023-11-14T18:46:21.816Z,2.65
2023-11-14T18:48:51.870Z,2.30
2023-11-14T18:51:22.872Z,2.45
2023-11-14T18:53:54.361Z,2.30
2023-11-14T18:56:24.184Z,2.08
2023-11-14T18:58:52.695Z,2.03
2023-11-14T19:01:22.626Z,2.00
2023-11-14T19:03:51.463Z,2.10
2023-11-14T19:06:23.385Z,1.45
2023-11-14T19:08:57.559Z,1.60
2023-11-14T19:11:27.620Z,1.73
2023-11-14T19:14:03.224Z,1.40
2023-11-14T19:16:34.409Z,1.40
2023-11-14T19:19:03.322Z,1.30
2023-11-14T19:24:10.373Z,1.20
2023-11-14T19:26:39.948Z,1.00
2023-11-14T19:29:08.522Z,1.42
2023-11-14T19:31:43.065Z,1.00
2023-11-14T19:34:12.067Z,1.00
2023-11-14T19:36:40.796Z,1.08
2023-11-14T19:39:09.549Z,1.13
2023-11-14T19:41:56.847Z,0.90
2023-11-14T19:44:25.906Z,1.00
2023-11-14T19:46:56.022Z,0.93
2023-11-14T19:49:30.557Z,0.90
2023-11-14T19:52:02.750Z,0.90
2023-11-14T19:54:31.217Z,0.90
2023-11-14T19:57:00.132Z,0.70
2023-11-14T19:59:47.026Z,0.80
2023-11-14T20:02:17.087Z,0.70
2023-11-14T20:04:45.656Z,0.80
2023-11-14T20:07:14.261Z,0.90
2023-11-14T20:09:43.664Z,0.70
2023-11-14T20:12:12.188Z,0.70
2023-11-14T20:14:41.753Z,0.73
2023-11-14T20:17:10.320Z,0.70
2023-11-14T20:19:41.190Z,0.63
2023-11-14T20:22:11.086Z,0.60
2023-11-14T20:24:40.972Z,0.70
2023-11-14T20:27:09.515Z,0.50
2023-11-14T20:29:38.065Z,0.60
2023-11-14T20:32:24.948Z,0.50
2023-11-14T20:34:55.913Z,0.50
2023-11-14T20:37:43.388Z,0.60
2023-11-14T20:40:13.226Z,0.52
2023-11-14T20:42:41.823Z,0.57
2023-11-14T20:45:13.134Z,0.50
2023-11-14T20:47:41.924Z,0.60
2023-11-14T20:50:12.676Z,0.35
2023-11-14T20:52:41.295Z,0.43
2023-11-14T20:55:10.354Z,0.40
2023-11-14T20:57:57.207Z,0.50
2023-11-14T21:00:25.736Z,0.35
2023-11-14T21:02:55.413Z,0.35
2023-11-14T21:05:47.478Z,0.40
2023-11-14T21:08:16.130Z,0.40
2023-11-14T21:10:46.883Z,0.28
2023-11-14T21:13:15.380Z,0.40
2023-11-14T21:15:44.189Z,0.50
2023-11-14T21:18:31.343Z,0.43
2023-11-14T21:21:01.201Z,0.30
2023-11-14T21:23:29.719Z,0.40
2023-11-14T21:25:58.224Z,0.40
2023-11-14T21:28:26.659Z,0.50
2023-11-14T21:31:07.572Z,0.20
2023-11-14T21:33:37.519Z,0.38
2023-11-14T21:36:10.283Z,0.10
2023-11-14T21:38:39.484Z,0.20
2023-11-14T21:41:08.572Z,0.20
2023-11-14T21:43:37.174Z,0.28
2023-11-14T21:46:05.992Z,0.30
2023-11-14T21:48:34.885Z,0.10
2023-11-14T21:51:03.767Z,0.13
2023-11-14T21:53:33.890Z,0.20
2023-11-14T21:56:02.377Z,0.17
2023-11-14T21:58:52.407Z,0.20
2023-11-14T22:01:21.887Z,0.20
2023-11-14T22:04:08.831Z,0.20
2023-11-14T22:06:37.288Z,0.10
2023-11-14T22:09:07.810Z,0.20
2023-11-14T22:11:36.571Z,0.10
2023-11-14T22:14:05.131Z,0.20
2023-11-14T22:16:33.731Z,0.10
2023-11-14T22:19:03.432Z,0.10
2023-11-14T22:21:33.122Z,0.30
2023-11-14T22:24:01.734Z,0.10
2023-11-14T22:26:31.667Z,0.20
2023-11-14T22:29:01.764Z,0.00
2023-11-14T22:31:30.515Z,0.10
2023-11-14T22:33:59.019Z,0.15
2023-11-14T22:36:27.508Z,0.00
2023-11-14T22:38:56.317Z,0.00
2023-11-14T22:41:24.836Z,0.10
2023-11-14T22:44:13.019Z,0.10
2023-11-14T22:46:41.558Z,0.05
2023-11-14T22:49:10.263Z,0.00
2023-11-14T22:51:38.771Z,0.15
2023-11-14T22:54:07.627Z,0.00
2023-11-14T22:56:36.167Z,0.10
2023-11-14T22:59:06.983Z,0.10
2023-11-14T23:01:37.589Z,0.10
2023-11-14T23:04:09.641Z,0.10
2023-11-14T23:06:40.398Z,0.20
2023-11-14T23:09:15.761Z,0.08
2023-11-14T23:11:45.846Z,0.05
2023-11-14T23:14:14.528Z,0.20
2023-11-14T23:16:45.860Z,0.10
2023-11-14T23:19:14.617Z,0.08
2023-11-14T23:21:49.115Z,0.10
2023-11-14T23:24:23.731Z,0.10
2023-11-14T23:26:52.335Z,0.00
2023-11-14T23:29:39.757Z,0.10
2023-11-14T23:32:10.460Z,0.00
2023-11-14T23:34:39.008Z,0.10
2023-11-14T23:37:07.473Z,0.03
2023-11-14T23:39:37.890Z,0.05
2023-11-14T23:42:06.790Z,0.00
2023-11-14T23:44:35.795Z,0.00
2023-11-14T23:47:04.253Z,0.00
2023-11-14T23:49:34.050Z,0.00
2023-11-14T23:52:02.546Z,0.10
2023-11-14T23:54:31.069Z,0.00
2023-11-14T23:57:00.401Z,0.00
2023-11-14T23:59:29.004Z,0.10
